AAL1325 KGPI-KLAS
Flight info
| Callsign | AAL1325 |
|---|---|
| Flight time | N/A |
| Altitude | 33000 |
| Route | SKOTT2 SKOTT MSO LKT TCH J9 FFU/N0452F340 J9 MLF STEWW CHOWW4 |
| Aircraft | MD83/M-SDFGIRWY/S |
Departure
| Time | 2026-04-22 03:01 |
|---|---|
| Airport | Glacier Park International Airport (KGPI) |
Arrival
| Time | N/A |
|---|---|
| Airport | Harry Reid International Airport (KLAS) |
| Time | Latitude | Longitude | Altitude | Speed | Heading |
|---|---|---|---|---|---|
| 2026-04-22 02:33 | 48.30758 | -114.25382 | 2978 ft | 0 kts | 124° |
| 2026-04-22 02:52 | 48.30764 | -114.25395 | 2978 ft | 4 kts | 129° |
| 2026-04-22 02:53 | 48.30790 | -114.25427 | 2978 ft | 4 kts | 161° |
| 2026-04-22 02:53 | 48.30805 | -114.25431 | 2978 ft | 4 kts | 188° |
| 2026-04-22 02:53 | 48.30821 | -114.25422 | 2978 ft | 0 kts | 214° |
| 2026-04-22 02:57 | 48.30799 | -114.25448 | 2978 ft | 7 kts | 227° |
| 2026-04-22 02:57 | 48.30794 | -114.25467 | 2978 ft | 4 kts | 257° |
| 2026-04-22 02:57 | 48.30809 | -114.25515 | 2976 ft | 7 kts | 303° |
| 2026-04-22 02:57 | 48.30785 | -114.25611 | 2969 ft | 15 kts | 218° |
| 2026-04-22 02:58 | 48.30672 | -114.25732 | 2969 ft | 23 kts | 215° |
| 2026-04-22 02:58 | 48.30543 | -114.25864 | 2970 ft | 22 kts | 214° |
| 2026-04-22 02:58 | 48.30424 | -114.25990 | 2972 ft | 22 kts | 214° |
| 2026-04-22 02:58 | 48.30280 | -114.26140 | 2970 ft | 26 kts | 214° |
| 2026-04-22 02:59 | 48.30137 | -114.26291 | 2967 ft | 25 kts | 215° |
| 2026-04-22 02:59 | 48.30004 | -114.26428 | 2970 ft | 22 kts | 214° |
| 2026-04-22 02:59 | 48.29886 | -114.26551 | 2972 ft | 19 kts | 216° |
| 2026-04-22 02:59 | 48.29860 | -114.26698 | 2972 ft | 16 kts | 306° |
| 2026-04-22 03:00 | 48.29928 | -114.26713 | 2970 ft | 2 kts | 34° |
| 2026-04-22 03:00 | 48.30131 | -114.26505 | 2967 ft | 68 kts | 35° |
| 2026-04-22 03:01 | 48.30671 | -114.25939 | 2970 ft | 119 kts | 34° |
| 2026-04-22 03:01 | 48.31464 | -114.25112 | 2970 ft | 156 kts | 36° |
| 2026-04-22 03:01 | 48.32435 | -114.24216 | 3189 ft | 164 kts | 29° |
| 2026-04-22 03:01 | 48.33440 | -114.23442 | 3645 ft | 162 kts | 27° |
| 2026-04-22 03:02 | 48.34494 | -114.22842 | 3977 ft | 167 kts | 12° |
| 2026-04-22 03:02 | 48.35669 | -114.22839 | 4283 ft | 174 kts | 348° |
| 2026-04-22 03:02 | 48.36822 | -114.23653 | 4414 ft | 194 kts | 320° |
| 2026-04-22 03:02 | 48.37664 | -114.25340 | 4696 ft | 207 kts | 293° |
| 2026-04-22 03:03 | 48.38008 | -114.27418 | 5286 ft | 206 kts | 276° |
| 2026-04-22 03:03 | 48.38041 | -114.29678 | 5509 ft | 231 kts | 264° |
| 2026-04-22 03:03 | 48.37551 | -114.32064 | 5782 ft | 248 kts | 236° |
| 2026-04-22 03:03 | 48.36288 | -114.33969 | 5993 ft | 270 kts | 209° |
| 2026-04-22 03:04 | 48.34517 | -114.34907 | 6490 ft | 272 kts | 184° |
| 2026-04-22 03:04 | 48.32648 | -114.34639 | 6961 ft | 276 kts | 157° |
| 2026-04-22 03:04 | 48.31042 | -114.33005 | 7281 ft | 286 kts | 131° |
| 2026-04-22 03:04 | 48.29855 | -114.30739 | 8232 ft | 269 kts | 124° |
| 2026-04-22 03:05 | 48.28824 | -114.28410 | 8907 ft | 273 kts | 123° |
| 2026-04-22 03:05 | 48.27801 | -114.25904 | 8953 ft | 285 kts | 121° |
| 2026-04-22 03:05 | 48.26810 | -114.23369 | 8842 ft | 279 kts | 123° |
| 2026-04-22 03:05 | 48.25619 | -114.21109 | 8741 ft | 273 kts | 137° |
| 2026-04-22 03:06 | 48.24203 | -114.19365 | 8948 ft | 255 kts | 144° |
| 2026-04-22 03:06 | 48.22710 | -114.17977 | 8900 ft | 254 kts | 155° |
| 2026-04-22 03:06 | 48.21012 | -114.17083 | 8939 ft | 263 kts | 169° |
| 2026-04-22 03:06 | 48.19180 | -114.16826 | 9461 ft | 262 kts | 179° |
| 2026-04-22 03:07 | 48.17411 | -114.16835 | 10374 ft | 248 kts | 180° |
| 2026-04-22 03:07 | 48.15670 | -114.16852 | 10817 ft | 257 kts | 180° |
| 2026-04-22 03:07 | 48.13809 | -114.16856 | 10952 ft | 277 kts | 180° |
| 2026-04-22 03:07 | 48.11851 | -114.16889 | 11394 ft | 284 kts | 181° |
| 2026-04-22 03:08 | 48.09840 | -114.16912 | 11743 ft | 296 kts | 180° |
| 2026-04-22 03:08 | 48.07723 | -114.16865 | 11949 ft | 313 kts | 179° |
| 2026-04-22 03:08 | 48.05495 | -114.16771 | 12113 ft | 328 kts | 178° |
| 2026-04-22 03:08 | 48.03164 | -114.16629 | 12323 ft | 342 kts | 177° |
| 2026-04-22 03:09 | 48.00781 | -114.16446 | 12918 ft | 343 kts | 177° |
| 2026-04-22 03:09 | 47.98396 | -114.16244 | 13578 ft | 344 kts | 176° |
| 2026-04-22 03:09 | 47.96008 | -114.16035 | 14162 ft | 345 kts | 176° |
| 2026-04-22 03:09 | 47.93603 | -114.15826 | 14697 ft | 347 kts | 176° |
| 2026-04-22 03:10 | 47.91186 | -114.15621 | 15269 ft | 349 kts | 176° |
| 2026-04-22 03:10 | 47.88755 | -114.15418 | 15841 ft | 350 kts | 176° |
| 2026-04-22 03:10 | 47.86316 | -114.15219 | 16388 ft | 353 kts | 176° |
| 2026-04-22 03:10 | 47.83856 | -114.15022 | 16950 ft | 354 kts | 176° |
| 2026-04-22 03:11 | 47.81422 | -114.14831 | 17478 ft | 356 kts | 176° |
| 2026-04-22 03:11 | 47.78906 | -114.14635 | 18005 ft | 358 kts | 176° |
| 2026-04-22 03:11 | 47.76441 | -114.14442 | 18435 ft | 361 kts | 176° |
| 2026-04-22 03:11 | 47.73894 | -114.14242 | 18883 ft | 363 kts | 177° |
| 2026-04-22 03:12 | 47.71359 | -114.14046 | 19325 ft | 365 kts | 177° |
| 2026-04-22 03:12 | 47.66285 | -114.13667 | 20196 ft | 370 kts | 178° |
| 2026-04-22 03:12 | 47.63702 | -114.13474 | 20627 ft | 372 kts | 178° |
| 2026-04-22 03:13 | 47.61107 | -114.13283 | 21065 ft | 375 kts | 178° |
| 2026-04-22 03:13 | 47.58500 | -114.13090 | 21519 ft | 376 kts | 178° |
| 2026-04-22 03:13 | 47.55874 | -114.12897 | 21942 ft | 379 kts | 179° |
| 2026-04-22 03:13 | 47.53236 | -114.12707 | 22359 ft | 381 kts | 179° |
| 2026-04-22 03:14 | 47.50585 | -114.12518 | 22799 ft | 382 kts | 179° |
| 2026-04-22 03:14 | 47.47921 | -114.12325 | 23211 ft | 384 kts | 179° |
| 2026-04-22 03:14 | 47.45250 | -114.12135 | 23580 ft | 385 kts | 179° |
| 2026-04-22 03:14 | 47.42568 | -114.11949 | 23920 ft | 387 kts | 179° |
| 2026-04-22 03:15 | 47.39876 | -114.11761 | 24276 ft | 388 kts | 179° |
| 2026-04-22 03:15 | 47.37177 | -114.11572 | 24626 ft | 389 kts | 179° |
| 2026-04-22 03:15 | 47.34467 | -114.11381 | 24969 ft | 390 kts | 179° |
| 2026-04-22 03:15 | 47.31753 | -114.11189 | 25301 ft | 392 kts | 179° |
| 2026-04-22 03:16 | 47.29023 | -114.10997 | 25600 ft | 394 kts | 179° |
| 2026-04-22 03:16 | 47.26286 | -114.10805 | 25948 ft | 394 kts | 179° |
| 2026-04-22 03:16 | 47.23540 | -114.10610 | 26275 ft | 395 kts | 179° |
| 2026-04-22 03:16 | 47.20793 | -114.10414 | 26616 ft | 396 kts | 179° |
| 2026-04-22 03:17 | 47.18030 | -114.10222 | 26911 ft | 398 kts | 179° |
| 2026-04-22 03:17 | 47.15258 | -114.10030 | 27267 ft | 398 kts | 179° |
| 2026-04-22 03:17 | 47.12485 | -114.09838 | 27489 ft | 401 kts | 179° |
| 2026-04-22 03:17 | 47.09691 | -114.09644 | 27748 ft | 402 kts | 179° |
| 2026-04-22 03:18 | 47.06903 | -114.09451 | 28116 ft | 402 kts | 179° |
| 2026-04-22 03:18 | 47.04135 | -114.09260 | 28299 ft | 405 kts | 179° |
| 2026-04-22 03:18 | 47.01325 | -114.09063 | 28671 ft | 404 kts | 179° |
| 2026-04-22 03:18 | 46.98496 | -114.08868 | 28845 ft | 408 kts | 179° |
| 2026-04-22 03:19 | 46.95662 | -114.08674 | 29119 ft | 409 kts | 179° |
| 2026-04-22 03:19 | 46.92817 | -114.08477 | 29407 ft | 409 kts | 179° |
| 2026-04-22 03:19 | 46.89966 | -114.08299 | 29626 ft | 411 kts | 180° |
| 2026-04-22 03:19 | 46.87104 | -114.08237 | 29847 ft | 412 kts | 181° |
| 2026-04-22 03:20 | 46.84233 | -114.08254 | 30041 ft | 413 kts | 182° |
| 2026-04-22 03:20 | 46.81354 | -114.08296 | 30237 ft | 414 kts | 182° |
| 2026-04-22 03:20 | 46.78467 | -114.08335 | 30424 ft | 416 kts | 182° |
| 2026-04-22 03:20 | 46.75573 | -114.08364 | 30623 ft | 417 kts | 181° |
| 2026-04-22 03:21 | 46.72667 | -114.08378 | 30790 ft | 418 kts | 181° |
| 2026-04-22 03:21 | 46.69754 | -114.08383 | 30999 ft | 419 kts | 181° |
| 2026-04-22 03:21 | 46.66834 | -114.08382 | 31156 ft | 420 kts | 181° |
| 2026-04-22 03:21 | 46.63906 | -114.08378 | 31360 ft | 421 kts | 181° |
| 2026-04-22 03:22 | 46.60974 | -114.08375 | 31513 ft | 422 kts | 181° |
| 2026-04-22 03:22 | 46.58036 | -114.08373 | 31710 ft | 423 kts | 181° |
| 2026-04-22 03:22 | 46.55090 | -114.08372 | 31857 ft | 424 kts | 181° |
| 2026-04-22 03:22 | 46.52138 | -114.08371 | 32030 ft | 424 kts | 181° |
| 2026-04-22 03:23 | 46.49180 | -114.08371 | 32180 ft | 426 kts | 181° |
| 2026-04-22 03:23 | 46.46217 | -114.08370 | 32359 ft | 426 kts | 181° |
| 2026-04-22 03:23 | 46.43275 | -114.08370 | 32506 ft | 416 kts | 181° |
| 2026-04-22 03:23 | 46.40447 | -114.08369 | 32554 ft | 398 kts | 181° |
| 2026-04-22 03:24 | 46.34977 | -114.08371 | 32592 ft | 394 kts | 181° |
| 2026-04-22 03:24 | 46.29436 | -114.08378 | 32629 ft | 403 kts | 181° |
| 2026-04-22 03:25 | 46.23761 | -114.08381 | 32635 ft | 412 kts | 181° |
| 2026-04-22 03:25 | 46.17981 | -114.08382 | 32628 ft | 416 kts | 181° |
| 2026-04-22 03:26 | 46.12231 | -114.08381 | 32621 ft | 414 kts | 181° |
| 2026-04-22 03:26 | 46.06444 | -114.08382 | 32622 ft | 412 kts | 181° |
| 2026-04-22 03:27 | 46.00742 | -114.08384 | 32621 ft | 413 kts | 181° |
| 2026-04-22 03:27 | 45.94998 | -114.08384 | 32625 ft | 412 kts | 181° |
| 2026-04-22 03:28 | 45.89272 | -114.08389 | 32623 ft | 411 kts | 181° |
| 2026-04-22 03:28 | 45.83567 | -114.08394 | 32612 ft | 409 kts | 180° |
| 2026-04-22 03:29 | 45.77864 | -114.08394 | 32613 ft | 409 kts | 180° |
| 2026-04-22 03:29 | 45.72183 | -114.08397 | 32633 ft | 407 kts | 181° |
| 2026-04-22 03:30 | 45.66521 | -114.08395 | 32615 ft | 406 kts | 181° |
| 2026-04-22 03:30 | 45.60876 | -114.08394 | 32611 ft | 406 kts | 181° |
| 2026-04-22 03:31 | 45.55234 | -114.08401 | 32625 ft | 405 kts | 181° |
| 2026-04-22 03:31 | 45.49592 | -114.08403 | 32617 ft | 405 kts | 181° |
| 2026-04-22 03:32 | 45.43961 | -114.08408 | 32607 ft | 405 kts | 180° |
| 2026-04-22 03:32 | 45.38323 | -114.08408 | 32626 ft | 405 kts | 181° |
| 2026-04-22 03:33 | 45.32721 | -114.08402 | 32631 ft | 406 kts | 180° |
| 2026-04-22 03:33 | 45.27078 | -114.08416 | 32649 ft | 405 kts | 180° |
| 2026-04-22 03:34 | 45.21434 | -114.08417 | 32657 ft | 406 kts | 180° |
| 2026-04-22 03:34 | 45.15775 | -114.08416 | 32660 ft | 407 kts | 180° |
| 2026-04-22 03:35 | 45.10113 | -114.08417 | 32660 ft | 407 kts | 180° |
| 2026-04-22 03:35 | 45.04450 | -114.08420 | 32658 ft | 408 kts | 180° |
| 2026-04-22 03:36 | 45.01628 | -114.08129 | 32657 ft | 408 kts | 168° |
| 2026-04-22 03:36 | 44.98918 | -114.06906 | 32676 ft | 410 kts | 161° |
| 2026-04-22 03:36 | 44.93622 | -114.03900 | 32665 ft | 410 kts | 161° |
| 2026-04-22 03:37 | 44.88327 | -114.00894 | 32665 ft | 410 kts | 161° |
| 2026-04-22 03:37 | 44.83020 | -113.97970 | 32635 ft | 409 kts | 162° |
| 2026-04-22 03:38 | 44.77714 | -113.95119 | 32638 ft | 408 kts | 162° |
| 2026-04-22 03:38 | 44.72451 | -113.92306 | 32636 ft | 407 kts | 162° |
| 2026-04-22 03:39 | 44.67163 | -113.89483 | 32636 ft | 406 kts | 162° |
| 2026-04-22 03:39 | 44.61885 | -113.86658 | 32656 ft | 406 kts | 162° |
| 2026-04-22 03:40 | 44.56602 | -113.83848 | 32654 ft | 406 kts | 162° |
| 2026-04-22 03:40 | 44.51324 | -113.81043 | 32647 ft | 406 kts | 162° |
| 2026-04-22 03:41 | 44.46050 | -113.78237 | 32642 ft | 406 kts | 162° |
| 2026-04-22 03:41 | 44.40776 | -113.75431 | 32641 ft | 405 kts | 162° |
| 2026-04-22 03:42 | 44.35505 | -113.72635 | 32646 ft | 405 kts | 162° |
| 2026-04-22 03:42 | 44.30239 | -113.69844 | 32648 ft | 404 kts | 162° |
| 2026-04-22 03:43 | 44.25874 | -113.67535 | 32652 ft | 404 kts | 162° |
| 2026-04-22 03:43 | 44.20620 | -113.64766 | 32653 ft | 404 kts | 162° |
| 2026-04-22 03:44 | 44.15368 | -113.62013 | 32663 ft | 403 kts | 162° |
| 2026-04-22 03:44 | 44.10115 | -113.59261 | 32666 ft | 403 kts | 162° |
| 2026-04-22 03:45 | 44.04873 | -113.56504 | 32673 ft | 403 kts | 163° |
| 2026-04-22 03:45 | 43.99641 | -113.53766 | 32668 ft | 401 kts | 162° |
| 2026-04-22 03:46 | 43.94410 | -113.51031 | 32667 ft | 403 kts | 162° |
| 2026-04-22 03:46 | 43.89160 | -113.48295 | 32653 ft | 403 kts | 162° |
| 2026-04-22 03:47 | 43.83916 | -113.45563 | 32630 ft | 402 kts | 163° |
| 2026-04-22 03:47 | 43.78672 | -113.42846 | 32625 ft | 403 kts | 163° |
| 2026-04-22 03:48 | 43.73447 | -113.40145 | 32615 ft | 404 kts | 163° |
| 2026-04-22 03:48 | 43.68181 | -113.37423 | 32629 ft | 404 kts | 163° |
| 2026-04-22 03:49 | 43.62908 | -113.34695 | 32619 ft | 405 kts | 163° |
| 2026-04-22 03:49 | 43.57629 | -113.31971 | 32614 ft | 405 kts | 163° |
| 2026-04-22 03:50 | 43.52346 | -113.29251 | 32612 ft | 405 kts | 163° |
| 2026-04-22 03:50 | 43.47065 | -113.26537 | 32610 ft | 406 kts | 163° |
| 2026-04-22 03:51 | 43.41772 | -113.23829 | 32610 ft | 406 kts | 163° |
| 2026-04-22 03:51 | 43.36471 | -113.21130 | 32615 ft | 406 kts | 163° |
| 2026-04-22 03:52 | 43.31173 | -113.18427 | 32609 ft | 406 kts | 163° |
| 2026-04-22 03:52 | 43.25870 | -113.15722 | 32615 ft | 407 kts | 163° |
| 2026-04-22 03:53 | 43.20563 | -113.13020 | 32615 ft | 407 kts | 163° |
| 2026-04-22 03:53 | 43.15254 | -113.10324 | 32618 ft | 407 kts | 163° |
| 2026-04-22 03:54 | 43.09945 | -113.07632 | 32618 ft | 407 kts | 163° |
| 2026-04-22 03:54 | 43.04632 | -113.04945 | 32623 ft | 407 kts | 163° |
| 2026-04-22 03:55 | 42.99319 | -113.02277 | 32641 ft | 407 kts | 163° |
| 2026-04-22 03:55 | 42.94040 | -112.99624 | 32659 ft | 407 kts | 163° |
| 2026-04-22 03:56 | 42.88726 | -112.96951 | 32669 ft | 407 kts | 163° |
| 2026-04-22 03:56 | 42.83416 | -112.94283 | 32673 ft | 407 kts | 163° |
| 2026-04-22 03:57 | 42.78098 | -112.91617 | 32673 ft | 408 kts | 163° |
| 2026-04-22 03:57 | 42.72764 | -112.88950 | 32668 ft | 409 kts | 163° |
| 2026-04-22 03:58 | 42.67416 | -112.86279 | 32656 ft | 410 kts | 163° |
| 2026-04-22 03:58 | 42.62056 | -112.83617 | 32651 ft | 410 kts | 163° |
| 2026-04-22 03:59 | 42.56687 | -112.80958 | 32648 ft | 411 kts | 163° |
| 2026-04-22 03:59 | 42.51319 | -112.78295 | 32646 ft | 411 kts | 164° |
| 2026-04-22 04:00 | 42.45953 | -112.75633 | 32652 ft | 411 kts | 163° |
| 2026-04-22 04:00 | 42.40581 | -112.72978 | 32654 ft | 411 kts | 164° |
| 2026-04-22 04:01 | 42.35221 | -112.70330 | 32657 ft | 409 kts | 163° |
| 2026-04-22 04:01 | 42.29872 | -112.67695 | 32658 ft | 409 kts | 164° |
| 2026-04-22 04:02 | 42.24521 | -112.65068 | 32663 ft | 409 kts | 164° |
| 2026-04-22 04:02 | 42.19205 | -112.62472 | 32662 ft | 409 kts | 164° |
| 2026-04-22 04:03 | 42.13861 | -112.59857 | 32659 ft | 409 kts | 164° |
| 2026-04-22 04:03 | 42.08514 | -112.57241 | 32655 ft | 409 kts | 164° |
| 2026-04-22 04:04 | 42.03170 | -112.54631 | 32653 ft | 408 kts | 164° |
| 2026-04-22 04:04 | 42.00498 | -112.53327 | 32158 ft | 409 kts | 163° |
| 2026-04-22 04:04 | 41.97833 | -112.52030 | 32752 ft | 408 kts | 164° |
| 2026-04-22 04:05 | 41.92486 | -112.49427 | 32669 ft | 408 kts | 164° |
| 2026-04-22 04:05 | 41.87148 | -112.46837 | 32667 ft | 408 kts | 165° |
| 2026-04-22 04:06 | 41.81794 | -112.44259 | 32660 ft | 409 kts | 164° |
| 2026-04-22 04:06 | 41.76423 | -112.41667 | 32668 ft | 412 kts | 164° |
| 2026-04-22 04:07 | 41.71028 | -112.39061 | 32693 ft | 412 kts | 164° |
| 2026-04-22 04:07 | 41.65624 | -112.36456 | 32705 ft | 413 kts | 165° |
| 2026-04-22 04:08 | 41.60203 | -112.33844 | 32725 ft | 414 kts | 165° |
| 2026-04-22 04:08 | 41.54777 | -112.31238 | 32729 ft | 415 kts | 165° |
| 2026-04-22 04:09 | 41.49333 | -112.28630 | 32735 ft | 416 kts | 165° |
| 2026-04-22 04:09 | 41.43882 | -112.26032 | 32732 ft | 417 kts | 165° |
| 2026-04-22 04:10 | 41.38417 | -112.23431 | 32717 ft | 417 kts | 165° |
| 2026-04-22 04:10 | 41.32943 | -112.20823 | 32734 ft | 418 kts | 165° |
| 2026-04-22 04:11 | 41.27494 | -112.18227 | 32760 ft | 419 kts | 165° |
| 2026-04-22 04:11 | 41.22005 | -112.15620 | 32778 ft | 419 kts | 165° |
| 2026-04-22 04:12 | 41.16508 | -112.13013 | 32789 ft | 420 kts | 165° |
| 2026-04-22 04:12 | 41.11002 | -112.10407 | 32803 ft | 421 kts | 165° |
| 2026-04-22 04:13 | 41.05488 | -112.07744 | 32801 ft | 422 kts | 164° |
| 2026-04-22 04:13 | 40.99963 | -112.05086 | 32776 ft | 423 kts | 165° |
| 2026-04-22 04:14 | 40.94407 | -112.02470 | 32753 ft | 424 kts | 165° |
| 2026-04-22 04:14 | 40.88840 | -111.99868 | 32778 ft | 425 kts | 165° |
| 2026-04-22 04:15 | 40.83165 | -111.97925 | 32803 ft | 419 kts | 179° |
| 2026-04-22 04:15 | 40.77335 | -111.97603 | 32792 ft | 420 kts | 181° |
| 2026-04-22 04:16 | 40.68602 | -111.97129 | 32800 ft | 422 kts | 180° |
| 2026-04-22 04:17 | 40.62729 | -111.96705 | 32807 ft | 423 kts | 179° |
| 2026-04-22 04:17 | 40.56854 | -111.96251 | 32809 ft | 422 kts | 179° |
| 2026-04-22 04:18 | 40.50988 | -111.95805 | 32798 ft | 422 kts | 179° |
| 2026-04-22 04:18 | 40.45135 | -111.95371 | 32775 ft | 421 kts | 179° |
| 2026-04-22 04:19 | 40.39280 | -111.94942 | 32759 ft | 422 kts | 179° |
| 2026-04-22 04:19 | 40.33419 | -111.94516 | 32785 ft | 423 kts | 179° |
| 2026-04-22 04:20 | 40.27542 | -111.94361 | 32806 ft | 421 kts | 192° |
| 2026-04-22 04:20 | 40.24756 | -111.95480 | 32827 ft | 420 kts | 203° |
| 2026-04-22 04:20 | 40.22085 | -111.97047 | 32820 ft | 421 kts | 205° |
| 2026-04-22 04:21 | 40.16778 | -112.00332 | 32792 ft | 422 kts | 205° |
| 2026-04-22 04:21 | 40.11455 | -112.03588 | 32762 ft | 422 kts | 204° |
| 2026-04-22 04:22 | 40.06094 | -112.06752 | 32752 ft | 423 kts | 204° |
| 2026-04-22 04:22 | 40.00712 | -112.09878 | 32729 ft | 423 kts | 204° |
| 2026-04-22 04:23 | 39.95355 | -112.12981 | 32733 ft | 424 kts | 204° |
| 2026-04-22 04:23 | 39.89943 | -112.16039 | 32737 ft | 424 kts | 203° |
| 2026-04-22 04:24 | 39.84528 | -112.19078 | 32740 ft | 424 kts | 203° |
| 2026-04-22 04:24 | 39.79127 | -112.22125 | 32739 ft | 423 kts | 203° |
| 2026-04-22 04:25 | 39.73722 | -112.25182 | 32746 ft | 424 kts | 203° |
| 2026-04-22 04:25 | 39.68320 | -112.28234 | 32746 ft | 423 kts | 204° |
| 2026-04-22 04:26 | 39.62915 | -112.31282 | 32775 ft | 424 kts | 204° |
| 2026-04-22 04:26 | 39.57507 | -112.34325 | 32794 ft | 424 kts | 203° |
| 2026-04-22 04:27 | 39.52082 | -112.37361 | 32821 ft | 425 kts | 203° |
| 2026-04-22 04:27 | 39.46694 | -112.40374 | 32845 ft | 425 kts | 204° |
| 2026-04-22 04:28 | 39.41261 | -112.43415 | 32858 ft | 425 kts | 204° |
| 2026-04-22 04:28 | 39.35829 | -112.46455 | 32850 ft | 425 kts | 203° |
| 2026-04-22 04:29 | 39.30390 | -112.49492 | 32857 ft | 426 kts | 204° |
| 2026-04-22 04:29 | 39.24948 | -112.52525 | 32831 ft | 426 kts | 204° |
| 2026-04-22 04:30 | 39.19498 | -112.55559 | 32810 ft | 427 kts | 203° |
| 2026-04-22 04:30 | 39.14038 | -112.58581 | 32778 ft | 427 kts | 203° |
| 2026-04-22 04:31 | 39.08573 | -112.61601 | 32813 ft | 428 kts | 204° |
| 2026-04-22 04:31 | 39.03105 | -112.64627 | 32801 ft | 428 kts | 203° |
| 2026-04-22 04:32 | 38.97631 | -112.67654 | 32801 ft | 428 kts | 204° |
| 2026-04-22 04:32 | 38.92155 | -112.70677 | 32786 ft | 428 kts | 204° |
| 2026-04-22 04:33 | 38.86713 | -112.73674 | 32772 ft | 429 kts | 203° |
| 2026-04-22 04:33 | 38.81234 | -112.76686 | 32736 ft | 429 kts | 204° |
| 2026-04-22 04:34 | 38.75741 | -112.79691 | 32743 ft | 429 kts | 204° |
| 2026-04-22 04:34 | 38.70243 | -112.82693 | 32764 ft | 430 kts | 204° |
| 2026-04-22 04:35 | 38.64745 | -112.85701 | 32800 ft | 430 kts | 204° |
| 2026-04-22 04:35 | 38.59243 | -112.88703 | 32996 ft | 430 kts | 204° |
| 2026-04-22 04:36 | 38.53836 | -112.91640 | 32892 ft | 413 kts | 205° |
| 2026-04-22 04:36 | 38.48611 | -112.94492 | 32891 ft | 406 kts | 205° |
| 2026-04-22 04:37 | 38.43404 | -112.97331 | 32889 ft | 409 kts | 205° |
| 2026-04-22 04:37 | 38.39049 | -112.99718 | 32895 ft | 411 kts | 205° |
| 2026-04-22 04:38 | 38.33777 | -113.02568 | 32891 ft | 412 kts | 204° |
| 2026-04-22 04:38 | 38.28482 | -113.05365 | 32862 ft | 412 kts | 204° |
| 2026-04-22 04:39 | 38.23180 | -113.08163 | 32830 ft | 412 kts | 204° |
| 2026-04-22 04:39 | 38.17888 | -113.10952 | 32804 ft | 412 kts | 204° |
| 2026-04-22 04:40 | 38.12602 | -113.13737 | 32785 ft | 411 kts | 205° |
| 2026-04-22 04:40 | 38.07320 | -113.16515 | 32762 ft | 411 kts | 205° |
| 2026-04-22 04:41 | 38.02037 | -113.19291 | 32790 ft | 411 kts | 205° |
| 2026-04-22 04:41 | 37.96754 | -113.22067 | 32819 ft | 411 kts | 205° |
| 2026-04-22 04:42 | 37.91478 | -113.24834 | 32847 ft | 411 kts | 205° |
| 2026-04-22 04:42 | 37.86237 | -113.27581 | 32867 ft | 410 kts | 205° |
| 2026-04-22 04:43 | 37.80966 | -113.30340 | 32891 ft | 410 kts | 205° |
| 2026-04-22 04:43 | 37.75693 | -113.33097 | 32890 ft | 410 kts | 205° |
| 2026-04-22 04:44 | 37.70414 | -113.35856 | 32882 ft | 411 kts | 205° |
| 2026-04-22 04:44 | 37.65123 | -113.38619 | 32863 ft | 412 kts | 205° |
| 2026-04-22 04:45 | 37.59819 | -113.41390 | 32839 ft | 413 kts | 205° |
| 2026-04-22 04:45 | 37.54514 | -113.44157 | 32809 ft | 412 kts | 205° |
| 2026-04-22 04:46 | 37.49213 | -113.46918 | 32803 ft | 412 kts | 206° |
| 2026-04-22 04:46 | 37.43929 | -113.49670 | 32795 ft | 410 kts | 206° |
| 2026-04-22 04:47 | 37.38674 | -113.52400 | 32796 ft | 408 kts | 206° |
| 2026-04-22 04:47 | 37.33436 | -113.55116 | 32833 ft | 407 kts | 206° |
| 2026-04-22 04:48 | 37.28211 | -113.57823 | 32834 ft | 406 kts | 206° |
| 2026-04-22 04:48 | 37.23002 | -113.60518 | 32857 ft | 404 kts | 206° |
| 2026-04-22 04:49 | 37.17799 | -113.63207 | 32859 ft | 405 kts | 206° |
| 2026-04-22 04:49 | 37.12581 | -113.65902 | 32868 ft | 406 kts | 206° |
| 2026-04-22 04:50 | 37.07344 | -113.68607 | 32870 ft | 408 kts | 206° |
| 2026-04-22 04:50 | 37.02093 | -113.71319 | 32858 ft | 408 kts | 206° |
| 2026-04-22 04:51 | 36.96882 | -113.74010 | 32855 ft | 408 kts | 206° |
| 2026-04-22 04:51 | 36.91621 | -113.76727 | 32851 ft | 410 kts | 206° |
| 2026-04-22 04:52 | 36.86348 | -113.79447 | 32835 ft | 410 kts | 206° |
| 2026-04-22 04:52 | 36.81081 | -113.82161 | 32801 ft | 409 kts | 206° |
| 2026-04-22 04:53 | 36.75804 | -113.84876 | 32808 ft | 412 kts | 206° |
| 2026-04-22 04:53 | 36.70505 | -113.87605 | 32819 ft | 412 kts | 206° |
| 2026-04-22 04:54 | 36.65207 | -113.90328 | 32815 ft | 412 kts | 206° |
| 2026-04-22 04:54 | 36.59917 | -113.93043 | 32826 ft | 411 kts | 206° |
| 2026-04-22 04:55 | 36.54629 | -113.95755 | 32821 ft | 411 kts | 206° |
| 2026-04-22 04:55 | 36.49353 | -113.98461 | 32817 ft | 410 kts | 206° |
| 2026-04-22 04:56 | 36.44075 | -114.01163 | 32827 ft | 410 kts | 207° |
| 2026-04-22 04:56 | 36.38796 | -114.03864 | 32813 ft | 410 kts | 207° |
| 2026-04-22 04:57 | 36.33512 | -114.06567 | 32815 ft | 411 kts | 207° |
| 2026-04-22 04:57 | 36.28215 | -114.09279 | 32827 ft | 413 kts | 207° |
| 2026-04-22 04:58 | 36.22915 | -114.11989 | 32803 ft | 413 kts | 207° |
| 2026-04-22 04:58 | 36.17595 | -114.14707 | 32807 ft | 413 kts | 207° |
| 2026-04-22 04:59 | 36.12277 | -114.17420 | 32811 ft | 414 kts | 207° |
| 2026-04-22 04:59 | 36.06951 | -114.20136 | 32813 ft | 414 kts | 207° |
| 2026-04-22 05:00 | 36.01620 | -114.22854 | 32815 ft | 415 kts | 207° |
| 2026-04-22 05:00 | 35.96275 | -114.25577 | 32814 ft | 416 kts | 207° |
| 2026-04-22 05:01 | 35.90925 | -114.28304 | 32811 ft | 416 kts | 207° |
| 2026-04-22 05:01 | 35.85577 | -114.31026 | 32806 ft | 416 kts | 207° |
| 2026-04-22 05:02 | 35.80256 | -114.33732 | 32817 ft | 416 kts | 207° |
| 2026-04-22 05:02 | 35.74901 | -114.36455 | 32822 ft | 417 kts | 207° |
| 2026-04-22 05:03 | 35.69543 | -114.39178 | 32836 ft | 416 kts | 207° |
| 2026-04-22 05:03 | 35.64192 | -114.41894 | 32843 ft | 416 kts | 207° |
| 2026-04-22 05:04 | 35.58844 | -114.44606 | 32856 ft | 415 kts | 207° |
| 2026-04-22 05:04 | 35.53497 | -114.47313 | 32858 ft | 415 kts | 207° |
| 2026-04-22 05:05 | 35.48165 | -114.50010 | 32877 ft | 414 kts | 207° |
| 2026-04-22 05:05 | 35.42832 | -114.52708 | 32901 ft | 415 kts | 207° |
| 2026-04-22 05:06 | 35.37489 | -114.55407 | 32908 ft | 415 kts | 207° |
| 2026-04-22 05:06 | 35.32154 | -114.58101 | 32913 ft | 414 kts | 207° |
| 2026-04-22 05:07 | 35.26826 | -114.60787 | 32927 ft | 415 kts | 207° |
| 2026-04-22 05:07 | 35.21486 | -114.63479 | 32916 ft | 414 kts | 208° |
| 2026-04-22 05:08 | 35.16154 | -114.66164 | 32917 ft | 415 kts | 207° |
| 2026-04-22 05:08 | 35.10819 | -114.68848 | 32910 ft | 414 kts | 207° |
| 2026-04-22 05:09 | 35.05488 | -114.71527 | 32902 ft | 415 kts | 208° |
| 2026-04-22 05:09 | 35.00161 | -114.74202 | 32914 ft | 414 kts | 208° |
| 2026-04-22 05:10 | 34.94861 | -114.76862 | 32921 ft | 416 kts | 208° |
| 2026-04-22 05:10 | 34.89512 | -114.79547 | 32921 ft | 416 kts | 208° |
| 2026-04-22 05:11 | 34.84158 | -114.82232 | 32924 ft | 416 kts | 208° |
| 2026-04-22 05:11 | 34.78809 | -114.84909 | 32922 ft | 416 kts | 208° |
| 2026-04-22 05:12 | 34.73451 | -114.87595 | 32922 ft | 417 kts | 208° |
| 2026-04-22 05:12 | 34.68081 | -114.90284 | 32913 ft | 417 kts | 208° |
| 2026-04-22 05:13 | 34.62709 | -114.92974 | 32904 ft | 418 kts | 208° |
| 2026-04-22 05:13 | 34.57337 | -114.95660 | 32893 ft | 418 kts | 208° |
| 2026-04-22 05:14 | 34.51967 | -114.98344 | 32888 ft | 418 kts | 208° |
| 2026-04-22 05:14 | 34.46592 | -115.01030 | 32892 ft | 418 kts | 208° |
| 2026-04-22 05:14 | 34.43898 | -115.02377 | 32773 ft | 418 kts | 204° |
| 2026-04-22 05:15 | 34.41199 | -115.03726 | 32843 ft | 422 kts | 204° |
| 2026-04-22 05:15 | 34.35698 | -115.06475 | 32903 ft | 433 kts | 204° |
| 2026-04-22 05:16 | 34.30056 | -115.09297 | 32927 ft | 444 kts | 204° |
| 2026-04-22 05:16 | 34.24314 | -115.12172 | 32935 ft | 447 kts | 204° |
| 2026-04-22 05:17 | 34.18580 | -115.15042 | 32926 ft | 445 kts | 204° |
| 2026-04-22 05:17 | 34.12870 | -115.17896 | 32929 ft | 444 kts | 204° |
| 2026-04-22 05:18 | 34.04319 | -115.22164 | 32939 ft | 443 kts | 204° |
| 2026-04-22 05:18 | 33.98660 | -115.24987 | 32956 ft | 443 kts | 204° |
| 2026-04-22 05:19 | 33.92974 | -115.27821 | 32959 ft | 442 kts | 204° |
| 2026-04-22 05:19 | 33.87290 | -115.30650 | 32965 ft | 441 kts | 204° |
| 2026-04-22 05:20 | 33.81612 | -115.33475 | 32968 ft | 442 kts | 204° |
| 2026-04-22 05:20 | 33.75935 | -115.36297 | 32979 ft | 441 kts | 204° |
| 2026-04-22 05:21 | 33.70268 | -115.39113 | 32979 ft | 441 kts | 204° |
| 2026-04-22 05:21 | 33.64595 | -115.41930 | 32981 ft | 441 kts | 205° |
| 2026-04-22 05:22 | 33.58926 | -115.44743 | 32988 ft | 440 kts | 205° |
| 2026-04-22 05:22 | 33.53263 | -115.47551 | 32991 ft | 440 kts | 205° |
| 2026-04-22 05:23 | 33.47606 | -115.50346 | 33042 ft | 437 kts | 208° |
| 2026-04-22 05:23 | 33.42098 | -115.53040 | 32993 ft | 421 kts | 209° |
| 2026-04-22 05:24 | 33.36690 | -115.55666 | 32994 ft | 419 kts | 209° |
| 2026-04-22 05:24 | 33.31269 | -115.58299 | 32998 ft | 422 kts | 209° |
| 2026-04-22 05:25 | 33.26742 | -115.60500 | 33001 ft | 423 kts | 209° |
| 2026-04-22 05:25 | 33.21281 | -115.63155 | 33000 ft | 424 kts | 209° |
| 2026-04-22 05:26 | 33.14931 | -115.66240 | 33008 ft | 424 kts | 209° |
| 2026-04-22 05:26 | 33.09466 | -115.68893 | 33021 ft | 424 kts | 209° |
| 2026-04-22 05:27 | 33.04890 | -115.71113 | 33034 ft | 424 kts | 210° |
| 2026-04-22 05:27 | 32.99432 | -115.73759 | 33038 ft | 423 kts | 210° |
| 2026-04-22 05:28 | 32.93978 | -115.76400 | 33041 ft | 423 kts | 210° |
| 2026-04-22 05:28 | 32.88523 | -115.79040 | 33042 ft | 423 kts | 210° |
| 2026-04-22 05:29 | 32.83073 | -115.81674 | 33042 ft | 423 kts | 210° |
| 2026-04-22 05:29 | 32.77653 | -115.84294 | 33045 ft | 423 kts | 210° |
| 2026-04-22 05:30 | 32.72159 | -115.86948 | 33046 ft | 424 kts | 210° |
| 2026-04-22 05:30 | 32.66736 | -115.89565 | 33054 ft | 424 kts | 210° |
| 2026-04-22 05:31 | 32.61275 | -115.92199 | 33054 ft | 424 kts | 210° |
| 2026-04-22 05:31 | 32.55814 | -115.94832 | 33072 ft | 424 kts | 210° |
| 2026-04-22 05:32 | 32.50348 | -115.97470 | 33077 ft | 425 kts | 210° |
| 2026-04-22 05:32 | 32.44868 | -116.00115 | 33092 ft | 426 kts | 210° |
| 2026-04-22 05:33 | 32.39372 | -116.02766 | 33097 ft | 427 kts | 210° |
| 2026-04-22 05:33 | 32.33863 | -116.05425 | 33111 ft | 428 kts | 210° |
| 2026-04-22 05:34 | 32.28346 | -116.08089 | 33122 ft | 429 kts | 210° |
| 2026-04-22 05:34 | 32.22810 | -116.10763 | 33135 ft | 430 kts | 210° |
| 2026-04-22 05:35 | 32.17259 | -116.13446 | 33142 ft | 431 kts | 209° |
| 2026-04-22 05:35 | 32.11697 | -116.16134 | 33151 ft | 433 kts | 209° |
| 2026-04-22 05:36 | 32.06122 | -116.18831 | 33154 ft | 433 kts | 209° |
| 2026-04-22 05:36 | 32.00540 | -116.21529 | 33156 ft | 434 kts | 209° |
| 2026-04-22 05:37 | 31.94947 | -116.24233 | 33154 ft | 435 kts | 209° |
| 2026-04-22 05:37 | 31.92975 | -116.25187 | 33156 ft | 435 kts | 209° |
| 2026-04-22 05:38 | 31.87635 | -116.27767 | 33158 ft | 436 kts | 209° |
| 2026-04-22 05:38 | 31.82014 | -116.30485 | 33150 ft | 437 kts | 209° |
| 2026-04-22 05:39 | 31.76377 | -116.33210 | 33160 ft | 438 kts | 209° |
| 2026-04-22 05:39 | 31.70731 | -116.35940 | 33158 ft | 439 kts | 209° |
| 2026-04-22 05:40 | 31.65077 | -116.38673 | 33152 ft | 439 kts | 209° |
| 2026-04-22 05:40 | 31.59422 | -116.41405 | 33150 ft | 440 kts | 209° |
| 2026-04-22 05:41 | 31.53755 | -116.44144 | 33141 ft | 441 kts | 209° |
| 2026-04-22 05:41 | 31.48080 | -116.46886 | 33143 ft | 442 kts | 209° |
| 2026-04-22 05:42 | 31.42400 | -116.49631 | 33148 ft | 442 kts | 209° |
| 2026-04-22 05:42 | 31.36713 | -116.52378 | 33143 ft | 442 kts | 209° |
| 2026-04-22 05:43 | 31.31023 | -116.55123 | 33143 ft | 443 kts | 209° |
| 2026-04-22 05:43 | 31.25324 | -116.57873 | 33143 ft | 443 kts | 209° |
| 2026-04-22 05:44 | 31.19663 | -116.60604 | 33141 ft | 444 kts | 209° |
| 2026-04-22 05:44 | 31.13955 | -116.63356 | 33137 ft | 444 kts | 209° |
| 2026-04-22 05:45 | 31.08246 | -116.66107 | 33139 ft | 444 kts | 209° |
| 2026-04-22 05:45 | 31.02535 | -116.68858 | 33139 ft | 444 kts | 209° |
| 2026-04-22 05:46 | 30.96818 | -116.71610 | 33140 ft | 444 kts | 209° |
| 2026-04-22 05:46 | 30.91355 | -116.74238 | 33141 ft | 444 kts | 209° |
| 2026-04-22 05:47 | 30.85640 | -116.76985 | 33138 ft | 444 kts | 209° |
| 2026-04-22 05:47 | 30.79924 | -116.79732 | 33139 ft | 445 kts | 209° |
| 2026-04-22 05:48 | 30.74205 | -116.82478 | 33140 ft | 445 kts | 209° |
| 2026-04-22 05:48 | 30.68485 | -116.85224 | 33139 ft | 445 kts | 209° |
| 2026-04-22 05:49 | 30.62763 | -116.87969 | 33140 ft | 445 kts | 209° |
| 2026-04-22 05:49 | 30.57041 | -116.90712 | 33142 ft | 445 kts | 209° |
| 2026-04-22 05:50 | 30.51323 | -116.93451 | 33142 ft | 445 kts | 210° |
| 2026-04-22 05:50 | 30.45603 | -116.96191 | 33145 ft | 445 kts | 210° |
| 2026-04-22 05:51 | 30.39890 | -116.98924 | 33141 ft | 444 kts | 210° |
| 2026-04-22 05:51 | 30.34175 | -117.01657 | 33142 ft | 444 kts | 210° |
| 2026-04-22 05:52 | 30.28460 | -117.04388 | 33140 ft | 444 kts | 210° |
| 2026-04-22 05:52 | 30.22788 | -117.07097 | 33143 ft | 444 kts | 210° |
| 2026-04-22 05:53 | 30.17079 | -117.09821 | 33144 ft | 444 kts | 210° |
| 2026-04-22 05:53 | 30.11374 | -117.12541 | 33145 ft | 444 kts | 210° |
| 2026-04-22 05:54 | 30.05670 | -117.15259 | 33141 ft | 443 kts | 210° |
| 2026-04-22 05:54 | 29.99970 | -117.17974 | 33141 ft | 443 kts | 210° |
| 2026-04-22 05:55 | 29.94271 | -117.20687 | 33143 ft | 443 kts | 210° |
| 2026-04-22 05:55 | 29.88571 | -117.23399 | 33153 ft | 443 kts | 210° |
| 2026-04-22 05:56 | 29.82874 | -117.26107 | 33149 ft | 443 kts | 210° |
| 2026-04-22 05:56 | 29.77184 | -117.28810 | 33149 ft | 442 kts | 211° |
| 2026-04-22 05:57 | 29.71494 | -117.31511 | 33147 ft | 442 kts | 211° |
| 2026-04-22 05:57 | 29.65808 | -117.34208 | 33150 ft | 442 kts | 211° |
| 2026-04-22 05:58 | 29.60128 | -117.36901 | 33150 ft | 442 kts | 211° |
| 2026-04-22 05:58 | 29.54449 | -117.39592 | 33150 ft | 442 kts | 211° |
| 2026-04-22 05:59 | 29.48806 | -117.42263 | 33151 ft | 441 kts | 211° |
| 2026-04-22 05:59 | 29.43130 | -117.44949 | 33152 ft | 441 kts | 211° |
| 2026-04-22 06:00 | 29.37458 | -117.47631 | 33150 ft | 441 kts | 211° |
| 2026-04-22 06:00 | 29.31788 | -117.50311 | 33152 ft | 441 kts | 211° |
| 2026-04-22 06:01 | 29.26122 | -117.52986 | 33153 ft | 440 kts | 211° |
| 2026-04-22 06:01 | 29.20456 | -117.55660 | 33150 ft | 440 kts | 211° |
| 2026-04-22 06:02 | 29.14793 | -117.58330 | 33148 ft | 440 kts | 211° |
| 2026-04-22 06:02 | 29.09135 | -117.60996 | 33151 ft | 440 kts | 211° |
| 2026-04-22 06:03 | 29.03472 | -117.63664 | 33152 ft | 440 kts | 211° |
| 2026-04-22 06:03 | 28.97808 | -117.66331 | 33143 ft | 440 kts | 211° |
| 2026-04-22 06:04 | 28.92144 | -117.68998 | 33161 ft | 441 kts | 212° |
| 2026-04-22 06:04 | 28.86478 | -117.71663 | 33158 ft | 440 kts | 212° |
| 2026-04-22 06:05 | 28.80815 | -117.74325 | 33160 ft | 440 kts | 212° |
| 2026-04-22 06:05 | 28.75143 | -117.76992 | 33161 ft | 441 kts | 212° |
| 2026-04-22 06:06 | 28.69507 | -117.79642 | 33162 ft | 441 kts | 212° |
| 2026-04-22 06:06 | 28.63829 | -117.82311 | 33157 ft | 442 kts | 212° |
| 2026-04-22 06:07 | 28.58144 | -117.84982 | 33158 ft | 442 kts | 212° |
| 2026-04-22 06:07 | 28.52456 | -117.87654 | 33161 ft | 442 kts | 212° |
| 2026-04-22 06:08 | 28.46766 | -117.90328 | 33159 ft | 443 kts | 212° |
| 2026-04-22 06:08 | 28.41075 | -117.93000 | 33161 ft | 443 kts | 212° |
| 2026-04-22 06:09 | 28.35378 | -117.95674 | 33164 ft | 443 kts | 211° |
| 2026-04-22 06:09 | 28.29677 | -117.98349 | 33162 ft | 443 kts | 211° |
| 2026-04-22 06:10 | 28.23974 | -118.01026 | 33161 ft | 444 kts | 211° |
| 2026-04-22 06:10 | 28.18269 | -118.03703 | 33166 ft | 444 kts | 211° |
| 2026-04-22 06:11 | 28.12558 | -118.06382 | 33163 ft | 444 kts | 211° |
| 2026-04-22 06:11 | 28.06846 | -118.09060 | 33164 ft | 445 kts | 211° |
| 2026-04-22 06:12 | 28.01125 | -118.11742 | 33163 ft | 445 kts | 211° |
| 2026-04-22 06:12 | 27.95409 | -118.14420 | 33165 ft | 445 kts | 211° |
| 2026-04-22 06:13 | 27.89686 | -118.17102 | 33166 ft | 445 kts | 211° |
| 2026-04-22 06:13 | 27.83963 | -118.19783 | 33168 ft | 446 kts | 211° |
| 2026-04-22 06:14 | 27.78270 | -118.22449 | 33166 ft | 446 kts | 211° |
| 2026-04-22 06:14 | 27.72541 | -118.25131 | 33168 ft | 446 kts | 211° |
| 2026-04-22 06:15 | 27.66804 | -118.27815 | 33175 ft | 446 kts | 211° |
| 2026-04-22 06:15 | 27.61068 | -118.30499 | 33170 ft | 447 kts | 211° |
| 2026-04-22 06:16 | 27.55323 | -118.33186 | 33171 ft | 447 kts | 211° |
| 2026-04-22 06:16 | 27.49574 | -118.35875 | 33171 ft | 447 kts | 211° |
| 2026-04-22 06:17 | 27.43823 | -118.38565 | 33173 ft | 448 kts | 211° |
| 2026-04-22 06:17 | 27.39034 | -118.40805 | 33174 ft | 448 kts | 211° |
| 2026-04-22 06:18 | 27.33272 | -118.43499 | 33174 ft | 449 kts | 211° |
| 2026-04-22 06:18 | 27.27507 | -118.46195 | 33174 ft | 449 kts | 211° |
| 2026-04-22 06:19 | 27.21735 | -118.48894 | 33173 ft | 449 kts | 211° |
| 2026-04-22 06:19 | 27.15957 | -118.51595 | 33180 ft | 450 kts | 211° |
| 2026-04-22 06:20 | 27.10180 | -118.54295 | 33183 ft | 450 kts | 211° |
| 2026-04-22 06:20 | 27.04395 | -118.56998 | 33175 ft | 451 kts | 211° |
| 2026-04-22 06:21 | 26.98604 | -118.59705 | 33179 ft | 451 kts | 211° |
| 2026-04-22 06:21 | 26.92812 | -118.62412 | 33178 ft | 451 kts | 211° |
| 2026-04-22 06:22 | 26.87013 | -118.65121 | 33177 ft | 452 kts | 211° |
| 2026-04-22 06:22 | 26.81209 | -118.67834 | 33177 ft | 452 kts | 211° |
| 2026-04-22 06:23 | 26.75404 | -118.70546 | 33177 ft | 452 kts | 211° |
| 2026-04-22 06:23 | 26.69596 | -118.73258 | 33177 ft | 453 kts | 211° |
| 2026-04-22 06:24 | 26.60871 | -118.77333 | 33177 ft | 453 kts | 211° |
| 2026-04-22 06:25 | 26.55051 | -118.80051 | 33179 ft | 453 kts | 211° |
| 2026-04-22 06:25 | 26.49228 | -118.82770 | 33185 ft | 454 kts | 211° |
| 2026-04-22 06:26 | 26.43445 | -118.85470 | 33180 ft | 454 kts | 211° |
| 2026-04-22 06:26 | 26.37621 | -118.88188 | 33180 ft | 454 kts | 210° |
| 2026-04-22 06:27 | 26.31792 | -118.90907 | 33183 ft | 454 kts | 210° |
| 2026-04-22 06:27 | 26.25963 | -118.93625 | 33182 ft | 454 kts | 210° |
| 2026-04-22 06:28 | 26.20135 | -118.96341 | 33182 ft | 454 kts | 210° |
| 2026-04-22 06:28 | 26.14303 | -118.99061 | 33180 ft | 454 kts | 210° |
| 2026-04-22 06:29 | 26.08475 | -119.01778 | 33182 ft | 454 kts | 210° |
| 2026-04-22 06:29 | 26.02644 | -119.04496 | 33181 ft | 454 kts | 210° |
| 2026-04-22 06:30 | 25.96813 | -119.07213 | 33180 ft | 454 kts | 210° |
| 2026-04-22 06:30 | 25.90984 | -119.09928 | 33187 ft | 454 kts | 210° |
| 2026-04-22 06:31 | 25.85151 | -119.12643 | 33183 ft | 454 kts | 210° |
| 2026-04-22 06:31 | 25.79318 | -119.15358 | 33186 ft | 455 kts | 210° |
| 2026-04-22 06:32 | 25.73481 | -119.18075 | 33182 ft | 455 kts | 210° |
| 2026-04-22 06:32 | 25.67645 | -119.20790 | 33186 ft | 455 kts | 210° |
| 2026-04-22 06:33 | 25.61803 | -119.23508 | 33185 ft | 455 kts | 210° |
| 2026-04-22 06:33 | 25.55960 | -119.26226 | 33184 ft | 456 kts | 210° |
| 2026-04-22 06:34 | 25.50155 | -119.28925 | 33184 ft | 456 kts | 210° |
| 2026-04-22 06:34 | 25.44310 | -119.31642 | 33181 ft | 456 kts | 209° |
| 2026-04-22 06:35 | 25.38460 | -119.34361 | 33185 ft | 456 kts | 209° |
| 2026-04-22 06:35 | 25.32610 | -119.37078 | 33183 ft | 456 kts | 209° |
| 2026-04-22 06:36 | 25.26756 | -119.39798 | 33184 ft | 456 kts | 209° |
| 2026-04-22 06:36 | 25.20903 | -119.42515 | 33189 ft | 457 kts | 209° |
| 2026-04-22 06:37 | 25.15046 | -119.45235 | 33189 ft | 457 kts | 209° |
| 2026-04-22 06:37 | 25.09189 | -119.47953 | 33190 ft | 457 kts | 209° |
| 2026-04-22 06:38 | 25.03331 | -119.50671 | 33191 ft | 457 kts | 209° |
| 2026-04-22 06:38 | 24.97473 | -119.53388 | 33191 ft | 457 kts | 209° |
| 2026-04-22 06:39 | 24.91613 | -119.56104 | 33189 ft | 457 kts | 208° |
| 2026-04-22 06:39 | 24.85754 | -119.58819 | 33191 ft | 457 kts | 208° |
| 2026-04-22 06:40 | 24.79887 | -119.61537 | 33192 ft | 457 kts | 208° |
| 2026-04-22 06:40 | 24.74066 | -119.64232 | 33192 ft | 457 kts | 208° |
| 2026-04-22 06:41 | 24.68163 | -119.66965 | 33193 ft | 457 kts | 208° |
| 2026-04-22 06:41 | 24.62360 | -119.69659 | 33190 ft | 449 kts | 209° |
| 2026-04-22 06:41 | 24.59537 | -119.71008 | 33180 ft | 433 kts | 209° |
| 2026-04-22 06:42 | 24.56841 | -119.72278 | 33079 ft | 412 kts | 209° |
| 2026-04-22 06:42 | 24.54234 | -119.73481 | 32547 ft | 403 kts | 208° |
| 2026-04-22 06:42 | 24.51642 | -119.74667 | 31529 ft | 406 kts | 208° |
| 2026-04-22 06:42 | 24.49010 | -119.75872 | 30374 ft | 413 kts | 208° |
| 2026-04-22 06:43 | 24.46349 | -119.77096 | 29312 ft | 414 kts | 207° |
| 2026-04-22 06:43 | 24.43716 | -119.78307 | 28678 ft | 405 kts | 207° |
| 2026-04-22 06:43 | 24.41166 | -119.79476 | 28285 ft | 390 kts | 207° |
| 2026-04-22 06:43 | 24.38695 | -119.80604 | 27811 ft | 380 kts | 207° |
| 2026-04-22 06:44 | 24.36269 | -119.81713 | 27072 ft | 377 kts | 207° |
| 2026-04-22 06:44 | 24.33839 | -119.82831 | 26133 ft | 381 kts | 207° |
| 2026-04-22 06:44 | 24.31386 | -119.83973 | 25217 ft | 384 kts | 207° |
| 2026-04-22 06:44 | 24.28930 | -119.85128 | 24503 ft | 382 kts | 207° |
| 2026-04-22 06:45 | 24.26510 | -119.86277 | 23981 ft | 375 kts | 207° |
| 2026-04-22 06:45 | 24.24148 | -119.87405 | 23480 ft | 367 kts | 207° |
| 2026-04-22 06:45 | 24.21831 | -119.88522 | 22840 ft | 361 kts | 207° |
| 2026-04-22 06:45 | 24.19541 | -119.89640 | 22099 ft | 360 kts | 208° |
| 2026-04-22 06:46 | 24.17260 | -119.90768 | 21351 ft | 359 kts | 208° |
| 2026-04-22 06:46 | 24.14997 | -119.91902 | 20669 ft | 357 kts | 208° |
| 2026-04-22 06:46 | 24.12760 | -119.93039 | 20087 ft | 351 kts | 208° |
| 2026-04-22 06:46 | 24.10569 | -119.94168 | 19543 ft | 346 kts | 208° |
| 2026-04-22 06:47 | 24.08413 | -119.95293 | 18962 ft | 342 kts | 208° |
| 2026-04-22 06:47 | 24.06283 | -119.96422 | 18297 ft | 340 kts | 208° |
| 2026-04-22 06:47 | 24.04163 | -119.97563 | 17549 ft | 339 kts | 209° |
| 2026-04-22 06:47 | 24.02063 | -119.98713 | 16873 ft | 336 kts | 209° |
| 2026-04-22 06:48 | 23.99995 | -119.99864 | 16280 ft | 331 kts | 209° |
| 2026-04-22 06:48 | 23.97966 | -120.01011 | 15691 ft | 326 kts | 210° |
| 2026-04-22 06:48 | 23.95966 | -120.02159 | 15067 ft | 323 kts | 210° |
| 2026-04-22 06:48 | 23.93987 | -120.03315 | 14424 ft | 322 kts | 210° |
| 2026-04-22 06:49 | 23.92026 | -120.04480 | 13770 ft | 320 kts | 210° |
| 2026-04-22 06:49 | 23.90084 | -120.05652 | 13104 ft | 317 kts | 210° |
| 2026-04-22 06:49 | 23.88197 | -120.06807 | 12505 ft | 313 kts | 211° |
| 2026-04-22 06:49 | 23.86316 | -120.07974 | 11902 ft | 309 kts | 211° |
| 2026-04-22 06:50 | 23.84462 | -120.09138 | 11278 ft | 307 kts | 211° |
| 2026-04-22 06:50 | 23.82621 | -120.10305 | 10652 ft | 305 kts | 212° |
| 2026-04-22 06:50 | 23.80795 | -120.11473 | 10033 ft | 303 kts | 212° |
| 2026-04-22 06:50 | 23.78987 | -120.12640 | 9380 ft | 300 kts | 212° |
| 2026-04-22 06:51 | 23.77205 | -120.13804 | 8762 ft | 297 kts | 212° |
| 2026-04-22 06:51 | 23.75443 | -120.14967 | 8136 ft | 295 kts | 212° |
| 2026-04-22 06:51 | 23.73696 | -120.16128 | 7511 ft | 293 kts | 213° |
| 2026-04-22 06:51 | 23.71963 | -120.17293 | 6896 ft | 292 kts | 213° |
| 2026-04-22 06:52 | 23.70247 | -120.18465 | 6265 ft | 290 kts | 213° |
| 2026-04-22 06:52 | 23.68552 | -120.19638 | 5653 ft | 288 kts | 213° |
| 2026-04-22 06:52 | 23.66871 | -120.20811 | 5049 ft | 285 kts | 213° |
| 2026-04-22 06:52 | 23.65210 | -120.21979 | 4427 ft | 283 kts | 213° |
| 2026-04-22 06:53 | 23.63567 | -120.23142 | 3846 ft | 279 kts | 214° |
| 2026-04-22 06:53 | 23.61956 | -120.24299 | 3299 ft | 275 kts | 214° |
| 2026-04-22 06:53 | 23.60373 | -120.25453 | 2682 ft | 273 kts | 214° |
| 2026-04-22 06:53 | 23.58799 | -120.26621 | 2004 ft | 274 kts | 215° |
| 2026-04-22 06:54 | 23.57228 | -120.27802 | 1375 ft | 274 kts | 215° |
| 2026-04-22 06:54 | 23.55679 | -120.28981 | 881 ft | 268 kts | 215° |
| 2026-04-22 06:54 | 23.54174 | -120.30146 | 388 ft | 263 kts | 216° |
| 2026-04-22 06:54 | 23.52770 | -120.31261 | 2 ft | 196 kts | 217° |
| 2026-04-22 06:55 | 23.52106 | -120.31798 | 2 ft | 45 kts | 217° |
| 2026-04-22 06:55 | 23.52067 | -120.31829 | 2 ft | 0 kts | 217° |